Time;durP1;ratioP1;P1;durP2;ratioP2;P2;SDS_P1;SDS_P2;PMS_P1;PMS_P2;Temp;Humidity;BMP_temperature;BMP_pressure;BME280_temperature;BME280_humidity;BME280_pressure;Samples;Min_cycle;Max_cycle;Signal;HPM_P1;HPM_P2
2023/11/26 00:00:33;;;;;;;0.20;0.20;;;;;;;3.48;84.87;99077.91;5015108;28;20151;-84
2023/11/26 00:02:59;;;;;;;0.13;0.13;;;;;;;3.38;84.74;99072.38;5014337;28;20061;-84
2023/11/26 00:05:24;;;;;;;0.20;0.20;;;;;;;3.37;84.52;99080.13;5014958;28;20123;-84
2023/11/26 00:07:50;;;;;;;0.10;0.10;;;;;;;3.44;84.77;99076.38;5014706;28;20160;-84
2023/11/26 00:10:15;;;;;;;0.20;0.20;;;;;;;3.30;84.54;99071.06;5031470;28;20076;-84
2023/11/26 00:12:42;;;;;;;0.10;0.10;;;;;;;3.49;84.83;99076.19;5014706;28;20037;-84
2023/11/26 00:15:08;;;;;;;0.20;0.20;;;;;;;3.49;84.40;99074.47;5031171;28;20144;-84
2023/11/26 00:17:34;;;;;;;0.20;0.20;;;;;;;3.51;84.73;99075.22;5014697;28;20025;-83
2023/11/26 00:20:00;;;;;;;0.20;0.20;;;;;;;3.52;84.64;99068.38;5030935;28;20040;-84
2023/11/26 00:22:28;;;;;;;0.15;0.15;;;;;;;3.52;84.40;99069.19;4998499;28;20402;-83
2023/11/26 00:24:53;;;;;;;0.10;0.10;;;;;;;3.46;85.08;99072.03;5014722;28;20505;-84
2023/11/26 00:27:19;;;;;;;0.20;0.20;;;;;;;3.46;84.26;99064.38;5014401;28;20029;-84
2023/11/26 00:29:45;;;;;;;0.20;0.20;;;;;;;3.59;83.47;99078.25;5014504;28;20400;-83
2023/11/26 00:32:10;;;;;;;0.20;0.20;;;;;;;3.61;83.13;99079.00;5013050;28;20060;-84
2023/11/26 00:34:36;;;;;;;0.20;0.20;;;;;;;3.58;83.10;99071.50;5014455;28;20053;-83
2023/11/26 00:37:02;;;;;;;0.10;0.10;;;;;;;3.71;83.12;99087.94;5014289;28;20068;-85
2023/11/26 00:39:28;;;;;;;0.10;0.10;;;;;;;3.62;82.59;99057.66;5014500;28;20072;-84
2023/11/26 00:41:53;;;;;;;0.20;0.20;;;;;;;3.66;82.02;99079.66;5030838;28;20479;-84
2023/11/26 00:44:19;;;;;;;0.10;0.10;;;;;;;3.65;81.53;99074.59;4997942;28;20411;-83
2023/11/26 00:46:45;;;;;;;0.10;0.10;;;;;;;3.79;82.22;99084.19;5030476;28;20041;-84
2023/11/26 00:49:12;;;;;;;0.10;0.10;;;;;;;3.75;82.17;99088.63;5014327;28;20042;-84
2023/11/26 00:51:38;;;;;;;0.20;0.20;;;;;;;3.74;82.00;99081.88;5014218;28;20026;-84
2023/11/26 00:54:05;;;;;;;0.10;0.10;;;;;;;3.86;81.82;99099.22;5014318;28;20152;-84
2023/11/26 00:56:32;;;;;;;0.10;0.10;;;;;;;3.84;80.79;99090.78;5014210;28;20442;-84
2023/11/26 00:58:57;;;;;;;0.20;0.20;;;;;;;4.09;81.10;99115.22;5013594;28;20033;-83
2023/11/26 01:01:23;;;;;;;0.20;0.20;;;;;;;3.88;81.19;99107.63;5013703;28;20511;-84
2023/11/26 01:03:49;;;;;;;0.20;0.20;;;;;;;3.91;nan;99122.00;5031821;28;20038;-84
2023/11/26 01:06:14;;;;;;;0.10;0.10;;;;;;;4.03;80.16;99124.84;5030345;28;20029;-84
2023/11/26 01:08:40;;;;;;;0.20;0.20;;;;;;;3.94;80.47;99127.00;5013746;28;20025;-84
2023/11/26 01:11:10;;;;;;;0.10;0.10;;;;;;;3.89;79.58;99121.25;5029960;28;20028;-84
2023/11/26 01:13:35;;;;;;;0.20;0.20;;;;;;;3.96;79.63;99132.88;5013491;28;20029;-84
2023/11/26 01:16:01;;;;;;;0.10;0.10;;;;;;;4.02;79.57;99124.91;5013589;28;20041;-84
2023/11/26 01:18:26;;;;;;;0.13;0.13;;;;;;;4.02;79.07;99135.13;5030505;28;20033;-84
2023/11/26 01:20:52;;;;;;;0.20;0.20;;;;;;;4.01;79.90;99128.38;5013537;28;20483;-84
2023/11/26 01:23:17;;;;;;;0.10;0.10;;;;;;;3.92;79.61;99114.25;5029757;28;20403;-83
2023/11/26 01:25:43;;;;;;;0.10;0.10;;;;;;;3.97;79.13;99126.84;5013309;28;20479;-84
2023/11/26 01:28:08;;;;;;;0.20;0.20;;;;;;;4.02;79.00;99141.09;5013228;28;20052;-85
2023/11/26 01:30:34;;;;;;;0.10;0.10;;;;;;;3.97;78.78;99126.84;5013473;28;20080;-84
2023/11/26 01:33:00;;;;;;;0.20;0.20;;;;;;;4.00;79.25;99134.38;5013189;28;20029;-84
2023/11/26 01:35:26;;;;;;;0.20;0.20;;;;;;;4.02;77.72;99135.97;5029933;28;20028;-84
2023/11/26 01:37:51;;;;;;;0.10;0.10;;;;;;;3.93;79.54;99138.97;5029806;28;20033;-83
2023/11/26 01:40:17;;;;;;;0.20;0.20;;;;;;;3.89;78.24;99134.03;5013057;28;20033;-83
2023/11/26 01:42:44;;;;;;;0.20;0.20;;;;;;;4.02;78.06;99142.81;5012735;28;20037;-84
2023/11/26 01:45:11;;;;;;;0.20;0.20;;;;;;;3.82;78.99;99127.53;4996861;28;20049;-84
2023/11/26 01:47:38;;;;;;;0.20;0.20;;;;;;;3.91;79.66;99139.91;5013842;28;20111;-84
2023/11/26 01:50:05;;;;;;;0.10;0.10;;;;;;;3.76;78.35;99122.72;5013148;28;20022;-84
2023/11/26 01:52:31;;;;;;;0.20;0.20;;;;;;;3.88;78.00;99147.75;5029427;28;20064;-84
2023/11/26 01:54:56;;;;;;;0.20;0.20;;;;;;;3.90;77.68;99162.13;5029196;28;20060;-85
2023/11/26 01:57:22;;;;;;;0.10;0.10;;;;;;;3.92;77.86;99164.59;5013116;28;20513;-84
2023/11/26 01:59:47;;;;;;;0.10;0.10;;;;;;;3.95;77.51;99174.72;5012708;28;20529;-85
2023/11/26 02:02:13;;;;;;;0.10;0.10;;;;;;;3.83;77.46;99170.94;5012922;28;20033;-85
2023/11/26 02:04:38;;;;;;;0.13;0.13;;;;;;;4.01;77.77;99182.09;5012979;28;20041;-84
2023/11/26 02:07:04;;;;;;;0.10;0.10;;;;;;;3.92;78.09;99178.22;4996469;28;20036;-84
2023/11/26 02:09:29;;;;;;;0.13;0.13;;;;;;;4.03;76.83;99182.84;5013015;28;20026;-84
2023/11/26 02:11:55;;;;;;;0.20;0.20;;;;;;;4.01;76.26;99184.66;5012706;28;20029;-84
2023/11/26 02:14:23;;;;;;;0.10;0.10;;;;;;;4.13;76.50;99194.38;5012857;28;20036;-85
2023/11/26 02:16:49;;;;;;;0.10;0.10;;;;;;;4.03;74.91;99183.72;4996926;28;20068;-84
2023/11/26 02:19:35;;;;;;;0.10;0.10;;;;;;;4.07;75.94;99183.56;5029378;28;20113;-84
2023/11/26 02:22:01;;;;;;;0.10;0.10;;;;;;;4.15;74.83;99202.81;5028535;28;20112;-84
2023/11/26 02:24:30;;;;;;;0.20;0.20;;;;;;;4.12;74.83;99190.13;5012591;28;20029;-84
2023/11/26 02:26:56;;;;;;;0.20;0.20;;;;;;;4.00;75.75;99188.13;4995956;28;20029;-84
2023/11/26 02:29:22;;;;;;;0.10;0.10;;;;;;;4.10;74.37;99186.81;5012872;28;20041;-83
2023/11/26 02:31:48;;;;;;;0.10;0.10;;;;;;;3.97;74.67;99190.81;5012436;28;20030;-84
2023/11/26 02:34:14;;;;;;;0.10;0.10;;;;;;;4.02;74.91;99199.09;4996384;28;20030;-84
2023/11/26 02:36:39;;;;;;;0.10;0.10;;;;;;;4.01;74.61;99188.03;5030013;28;20407;-84
2023/11/26 02:39:05;;;;;;;0.10;0.10;;;;;;;4.00;74.14;99203.47;4996091;28;20501;-84
2023/11/26 02:41:35;;;;;;;0.10;0.10;;;;;;;3.96;74.38;99190.00;4996102;28;20033;-84
2023/11/26 02:44:00;;;;;;;0.10;0.10;;;;;;;3.91;74.44;99194.47;5028847;28;20413;-84
2023/11/26 02:46:27;;;;;;;0.10;0.10;;;;;;;4.01;73.42;99211.06;5028731;28;20108;-85
2023/11/26 02:48:53;;;;;;;0.10;0.10;;;;;;;3.96;73.49;99222.44;5012760;28;20025;-84
2023/11/26 02:51:19;;;;;;;0.20;0.20;;;;;;;3.95;73.95;99210.53;5028792;28;20026;-84
2023/11/26 02:53:44;;;;;;;0.10;0.10;;;;;;;3.88;74.27;99219.38;5028869;28;20033;-84
2023/11/26 02:56:11;;;;;;;0.10;0.10;;;;;;;3.89;72.89;99226.16;4999432;28;20501;-84
2023/11/26 02:58:37;;;;;;;0.10;0.10;;;;;;;3.88;72.79;99230.44;4999905;28;20034;-84
2023/11/26 03:01:04;;;;;;;0.20;0.20;;;;;;;3.72;72.96;99230.25;5032641;28;20506;-84
2023/11/26 03:03:29;;;;;;;0.10;0.10;;;;;;;3.83;72.26;99204.22;5016477;28;20021;-84
2023/11/26 03:05:55;;;;;;;0.20;0.20;;;;;;;3.65;71.66;99210.16;5016080;28;20030;-85
2023/11/26 03:08:32;;;;;;;0.20;0.20;;;;;;;3.64;70.77;99211.06;4999677;28;20108;-84
2023/11/26 03:13:41;;;;;;;0.10;0.10;;;;;;;3.47;71.69;99239.06;5018330;28;20494;-84
2023/11/26 03:16:07;;;;;;;0.10;0.10;;;;;;;3.27;71.62;99222.00;5015913;28;20030;-85
2023/11/26 03:18:34;;;;;;;0.20;0.20;;;;;;;3.45;71.21;99241.69;5016020;28;20021;-85
2023/11/26 03:20:59;;;;;;;0.10;0.10;;;;;;;3.48;69.23;99251.78;5015862;28;20032;-85
2023/11/26 03:23:25;;;;;;;0.10;0.10;;;;;;;3.47;71.04;99247.56;5032224;28;20034;-83
2023/11/26 03:25:51;;;;;;;0.10;0.10;;;;;;;3.24;71.11;99235.72;5015399;28;20499;-85
2023/11/26 03:28:19;;;;;;;0.10;0.10;;;;;;;3.29;70.19;99246.59;5015648;28;20079;-84
2023/11/26 03:30:46;;;;;;;0.10;0.10;;;;;;;3.44;70.44;99245.09;5015676;28;20025;-84
2023/11/26 03:33:15;;;;;;;0.10;0.10;;;;;;;3.35;69.62;99254.00;5032023;28;20025;-84
2023/11/26 03:35:41;;;;;;;0.10;0.10;;;;;;;3.21;70.13;99252.91;5015918;28;20032;-83
2023/11/26 03:38:08;;;;;;;0.10;0.10;;;;;;;3.17;70.58;99253.03;5015588;28;20033;-84
2023/11/26 03:40:34;;;;;;;0.10;0.10;;;;;;;3.16;68.83;99255.66;5015449;28;20064;-83
2023/11/26 03:42:59;;;;;;;0.20;0.20;;;;;;;3.04;70.31;99233.13;5032109;28;20045;-84
2023/11/26 03:45:25;;;;;;;0.10;0.10;;;;;;;3.07;68.44;99223.63;5015474;28;20419;-85
2023/11/26 03:47:50;;;;;;;0.10;0.10;;;;;;;3.11;68.45;99226.88;5031596;28;20033;-83
2023/11/26 03:50:19;;;;;;;0.10;0.10;;;;;;;3.13;69.80;99241.25;4998944;28;20065;-84
2023/11/26 03:52:45;;;;;;;0.10;0.10;;;;;;;2.94;69.74;99235.22;5026873;28;20039;-84
2023/11/26 03:55:10;;;;;;;0.10;0.10;;;;;;;3.06;67.67;99228.81;5014888;28;20037;-84
2023/11/26 03:57:37;;;;;;;0.10;0.10;;;;;;;2.96;68.00;99236.03;5031474;28;20104;-85
2023/11/26 04:00:08;;;;;;;0.10;0.10;;;;;;;2.91;67.63;99225.13;4998854;28;20083;-84
2023/11/26 04:02:35;;;;;;;0.10;0.10;;;;;;;3.09;67.15;99249.13;5015612;28;20124;-84
2023/11/26 04:05:01;;;;;;;0.10;0.10;;;;;;;3.12;66.41;99256.66;4998488;28;20033;-83
2023/11/26 04:07:26;;;;;;;0.10;0.10;;;;;;;3.02;64.85;99248.53;4998099;28;20179;-84
2023/11/26 04:09:52;;;;;;;0.20;0.20;;;;;;;3.17;64.66;99282.88;5014816;28;20112;-84
2023/11/26 04:12:18;;;;;;;0.10;0.10;;;;;;;3.19;65.78;99278.53;5014761;28;20465;-83
2023/11/26 04:14:57;;;;;;;0.20;0.20;;;;;;;3.13;63.64;99284.69;5014937;28;20025;-84
2023/11/26 04:17:24;;;;;;;0.10;0.10;;;;;;;3.03;63.42;99285.97;5014978;28;20030;-85
2023/11/26 04:19:50;;;;;;;0.10;0.10;;;;;;;3.02;62.68;99297.06;5015233;28;20472;-85
2023/11/26 04:22:25;;;;;;;0.20;0.20;;;;;;;3.04;63.75;99302.13;4998052;28;20060;-84
2023/11/26 04:24:51;;;;;;;0.20;0.20;;;;;;;3.01;62.81;99292.84;5015329;28;20024;-84
2023/11/26 04:27:17;;;;;;;0.10;0.10;;;;;;;2.99;62.81;99281.88;5014264;28;20104;-84
2023/11/26 04:29:43;;;;;;;0.10;0.10;;;;;;;3.01;61.51;99286.91;5014350;28;20052;-84
2023/11/26 04:32:08;;;;;;;0.10;0.10;;;;;;;3.03;60.11;99285.97;5014305;28;20487;-84
2023/11/26 04:34:34;;;;;;;0.10;0.10;;;;;;;3.06;60.51;99297.81;5030763;28;20045;-84
2023/11/26 04:37:00;;;;;;;0.10;0.10;;;;;;;3.14;60.94;99309.34;5014001;28;20033;-84
2023/11/26 04:39:25;;;;;;;0.10;0.10;;;;;;;2.91;59.82;99308.59;5014363;28;20403;-85
2023/11/26 04:41:52;;;;;;;0.20;0.20;;;;;;;2.95;58.44;99308.44;4997837;28;20029;-84
2023/11/26 04:44:21;;;;;;;0.20;0.20;;;;;;;2.98;57.98;99308.31;5030613;28;20033;-86
2023/11/26 04:46:48;;;;;;;0.20;0.20;;;;;;;3.01;58.06;99340.56;5030334;28;20443;-85
2023/11/26 04:49:15;;;;;;;0.10;0.10;;;;;;;2.95;58.12;99340.78;5013961;28;20029;-84
2023/11/26 04:51:41;;;;;;;0.20;0.20;;;;;;;3.05;57.58;99353.19;5013930;28;20030;-84
2023/11/26 04:54:09;;;;;;;0.10;0.10;;;;;;;2.86;57.19;99349.66;5030211;28;20079;-85
2023/11/26 04:56:40;;;;;;;0.10;0.10;;;;;;;2.85;56.73;99360.75;5013836;28;20510;-83
2023/11/26 04:59:09;;;;;;;0.10;0.10;;;;;;;2.76;57.36;99361.94;5030129;28;20029;-85
2023/11/26 05:01:43;;;;;;;0.10;0.10;;;;;;;2.81;57.56;99382.19;4998401;28;20030;-84
2023/11/26 05:04:10;;;;;;;0.10;0.10;;;;;;;2.81;55.90;99382.19;4998872;28;20026;-85
2023/11/26 05:06:35;;;;;;;0.10;0.10;;;;;;;2.89;56.41;99385.31;5029851;28;20594;-84
2023/11/26 05:09:01;;;;;;;0.10;0.10;;;;;;;2.74;57.25;99396.06;5013709;28;20088;-84
2023/11/26 05:11:26;;;;;;;0.10;0.10;;;;;;;2.73;58.27;99405.44;4997048;28;20083;-84
2023/11/26 05:13:52;;;;;;;0.20;0.20;;;;;;;2.87;57.55;99403.25;5013503;28;20064;-84
2023/11/26 05:16:17;;;;;;;0.17;0.17;;;;;;;2.86;56.55;99398.19;5013803;28;20025;-84
2023/11/26 05:18:43;;;;;;;0.10;0.10;;;;;;;2.73;57.24;99408.00;5012792;28;20034;-84
2023/11/26 05:21:09;;;;;;;0.10;0.10;;;;;;;2.65;56.66;99422.75;5013264;28;20033;-84
2023/11/26 05:23:34;;;;;;;0.10;0.10;;;;;;;2.61;57.89;99425.50;5013818;28;20033;-85
2023/11/26 05:26:02;;;;;;;0.10;0.10;;;;;;;2.48;57.40;99430.22;4997201;28;20029;-84
2023/11/26 05:28:28;;;;;;;0.10;0.10;;;;;;;2.48;57.76;99441.25;5013654;28;20032;-85
2023/11/26 05:30:53;;;;;;;0.20;0.20;;;;;;;2.53;58.18;99443.63;4996929;28;20407;-85
2023/11/26 05:33:19;;;;;;;0.10;0.10;;;;;;;2.45;57.68;99446.44;4985801;28;20106;-84
2023/11/26 05:35:44;;;;;;;0.10;0.10;;;;;;;2.40;57.32;99448.34;5003456;28;20021;-84
2023/11/26 05:38:10;;;;;;;0.10;0.10;;;;;;;2.37;57.92;99452.72;5031018;28;20037;-85
2023/11/26 05:40:35;;;;;;;0.10;0.10;;;;;;;2.33;57.65;99461.34;5013005;28;20033;-85
2023/11/26 05:43:02;;;;;;;0.10;0.10;;;;;;;2.25;57.74;99464.16;5013133;28;20029;-85
2023/11/26 05:45:28;;;;;;;0.10;0.10;;;;;;;2.21;57.95;99457.50;4996843;28;20132;-84
2023/11/26 05:47:55;;;;;;;0.10;0.10;;;;;;;2.21;58.42;99481.28;5013644;28;20049;-84
2023/11/26 05:50:20;;;;;;;0.10;0.10;;;;;;;2.18;58.76;99478.03;5012604;28;20033;-83
2023/11/26 05:52:46;;;;;;;0.10;0.10;;;;;;;2.34;58.85;99498.75;5012725;28;20052;-84
2023/11/26 05:55:12;;;;;;;0.10;0.10;;;;;;;2.15;58.56;99494.25;4996722;28;20041;-84
2023/11/26 05:57:37;;;;;;;0.17;0.17;;;;;;;2.23;58.14;99512.69;4996363;28;20029;-84
2023/11/26 06:00:04;;;;;;;0.10;0.10;;;;;;;2.15;58.42;99507.00;5029440;28;20112;-85
2023/11/26 06:02:30;;;;;;;0.10;0.10;;;;;;;2.15;59.95;99537.63;4996901;28;20029;-85
2023/11/26 06:04:56;;;;;;;0.10;0.10;;;;;;;2.22;59.19;99535.72;5012943;28;20026;-85
2023/11/26 06:07:23;;;;;;;0.20;0.20;;;;;;;2.21;58.60;99544.25;5029309;28;20025;-84
2023/11/26 06:09:48;;;;;;;0.10;0.10;;;;;;;2.11;57.16;99542.88;5013048;28;20411;-85
2023/11/26 06:12:13;;;;;;;0.10;0.10;;;;;;;2.04;58.57;99566.91;5030270;28;20030;-86
2023/11/26 06:14:39;;;;;;;0.10;0.10;;;;;;;1.95;59.09;99553.53;5012802;28;20062;-86
2023/11/26 06:17:05;;;;;;;0.10;0.10;;;;;;;1.98;59.03;99561.13;5012978;28;20026;-84
2023/11/26 06:19:31;;;;;;;0.20;0.20;;;;;;;1.96;59.48;99555.22;5012659;28;20029;-84
2023/11/26 06:21:56;;;;;;;0.10;0.10;;;;;;;1.99;59.04;99585.75;5012750;28;20033;-84
2023/11/26 06:24:22;;;;;;;0.10;0.10;;;;;;;1.99;59.94;99575.56;5012702;28;20407;-85
2023/11/26 06:26:48;;;;;;;0.10;0.10;;;;;;;1.87;59.00;99583.56;4996414;28;20032;-84
2023/11/26 06:29:14;;;;;;;0.10;0.10;;;;;;;1.91;59.79;99589.41;5014676;28;20558;-84
2023/11/26 06:31:39;;;;;;;0.10;0.10;;;;;;;1.81;58.96;99583.75;5016333;28;20044;-85
2023/11/26 06:34:05;;;;;;;0.10;0.10;;;;;;;1.85;59.16;99602.34;5016403;28;20029;-84
2023/11/26 06:36:31;;;;;;;0.10;0.10;;;;;;;1.70;60.12;99584.06;5016985;28;20025;-84
2023/11/26 06:38:56;;;;;;;0.10;0.10;;;;;;;1.68;61.16;99606.22;5016159;28;20402;-84
2023/11/26 06:41:29;;;;;;;0.20;0.20;;;;;;;1.71;60.39;99612.94;5016535;28;20036;-84
2023/11/26 06:43:58;;;;;;;0.20;0.20;;;;;;;1.77;60.24;99635.72;5000158;28;20029;-85
2023/11/26 06:46:26;;;;;;;0.20;0.20;;;;;;;1.68;59.82;99656.41;5000166;28;20053;-85
2023/11/26 06:48:52;;;;;;;0.20;0.20;;;;;;;1.71;60.15;99630.78;5016009;28;20026;-85
2023/11/26 06:51:17;;;;;;;0.10;0.10;;;;;;;1.81;60.14;99646.66;5016314;28;20102;-85
2023/11/26 06:53:44;;;;;;;0.10;0.10;;;;;;;1.81;60.81;99651.78;5032456;28;20029;-84
2023/11/26 06:56:09;;;;;;;0.20;0.20;;;;;;;1.70;60.86;99642.72;5015984;28;20048;-84
2023/11/26 06:58:43;;;;;;;0.10;0.10;;;;;;;1.64;60.68;99650.53;5016156;28;20025;-84
2023/11/26 07:01:09;;;;;;;0.20;0.20;;;;;;;1.80;61.16;99671.34;5016496;28;20159;-84
2023/11/26 07:03:35;;;;;;;0.10;0.10;;;;;;;1.67;59.36;99693.81;4999456;28;20116;-85
2023/11/26 07:06:10;;;;;;;0.20;0.20;;;;;;;1.66;60.12;99674.25;4999666;28;20037;-84
2023/11/26 07:08:39;;;;;;;0.10;0.10;;;;;;;1.86;61.40;99701.75;4983706;28;20036;-85
2023/11/26 07:11:05;;;;;;;0.20;0.20;;;;;;;1.79;60.58;99713.03;4998086;28;20363;-84
2023/11/26 07:13:31;;;;;;;0.20;0.20;;;;;;;1.72;60.54;99735.28;4999789;28;20026;-86
2023/11/26 07:15:57;;;;;;;0.20;0.20;;;;;;;1.70;60.58;99721.75;4999274;28;20092;-84
2023/11/26 07:18:23;;;;;;;0.20;0.20;;;;;;;1.63;61.80;99742.34;5032370;28;20075;-84
2023/11/26 07:20:49;;;;;;;0.20;0.20;;;;;;;1.65;59.72;99718.47;5032237;28;20025;-85
2023/11/26 07:23:14;;;;;;;0.10;0.10;;;;;;;1.59;59.99;99722.94;4999250;28;20044;-85
2023/11/26 07:25:40;;;;;;;0.10;0.10;;;;;;;1.61;59.95;99732.19;5015730;28;20045;-85
2023/11/26 07:28:11;;;;;;;0.10;0.10;;;;;;;1.69;59.59;99744.75;5015417;28;20100;-85
2023/11/26 07:30:40;;;;;;;0.20;0.20;;;;;;;1.59;59.57;99728.03;5000195;28;20467;-86
2023/11/26 07:33:06;;;;;;;0.10;0.10;;;;;;;1.76;60.66;99740.31;5015872;28;20044;-85
2023/11/26 07:35:31;;;;;;;0.10;0.10;;;;;;;1.77;59.78;99750.50;5015741;28;20030;-84
2023/11/26 07:37:57;;;;;;;0.20;0.20;;;;;;;1.75;59.93;99754.78;5031893;28;20495;-83
2023/11/26 07:40:22;;;;;;;0.10;0.10;;;;;;;1.81;60.53;99754.63;5014674;28;20403;-84
2023/11/26 07:42:49;;;;;;;0.10;0.10;;;;;;;1.82;60.39;99758.00;4998965;28;20029;-84
2023/11/26 07:45:15;;;;;;;0.20;0.20;;;;;;;1.83;60.10;99780.91;5031324;28;20507;-85
2023/11/26 07:47:40;;;;;;;0.10;0.10;;;;;;;1.88;60.40;99776.53;5015194;28;20033;-84
2023/11/26 07:50:07;;;;;;;0.10;0.10;;;;;;;1.82;59.63;99781.78;5015217;28;20029;-84
2023/11/26 07:52:34;;;;;;;0.20;0.20;;;;;;;1.75;60.68;99825.34;5015239;28;20403;-85
2023/11/26 07:55:03;;;;;;;0.10;0.10;;;;;;;1.77;60.14;99796.38;5015261;28;20029;-84
2023/11/26 07:57:30;;;;;;;0.10;0.10;;;;;;;1.78;59.51;99799.78;4999711;28;20061;-85
2023/11/26 07:59:57;;;;;;;0.10;0.10;;;;;;;1.78;59.55;99803.16;5015095;28;20057;-85
2023/11/26 08:02:23;;;;;;;0.20;0.20;;;;;;;1.66;59.35;99794.09;5014862;28;20112;-84
2023/11/26 08:04:53;;;;;;;0.10;0.10;;;;;;;1.81;60.08;99820.09;5014779;28;20022;-84
2023/11/26 08:07:24;;;;;;;0.10;0.10;;;;;;;1.84;59.21;99836.13;4999699;28;20029;-84
2023/11/26 08:09:53;;;;;;;0.20;0.20;;;;;;;1.93;59.35;99824.84;4999786;28;20040;-84
2023/11/26 08:12:20;;;;;;;0.10;0.10;;;;;;;1.96;58.87;99828.16;5014806;28;20018;-83
2023/11/26 08:14:52;;;;;;;0.10;0.10;;;;;;;1.93;58.81;99841.00;5014542;28;20029;-85
2023/11/26 08:17:22;;;;;;;0.20;0.20;;;;;;;2.09;58.37;99850.81;5015330;28;20032;-85
2023/11/26 08:19:48;;;;;;;0.20;0.20;;;;;;;1.97;58.42;99846.88;5014810;28;20034;-84
2023/11/26 08:22:14;;;;;;;0.20;0.20;;;;;;;2.04;57.46;99862.84;5014500;28;20064;-85
2023/11/26 08:24:42;;;;;;;0.20;0.20;;;;;;;2.07;57.19;99850.88;4998571;28;20061;-84
2023/11/26 08:27:09;;;;;;;0.20;0.20;;;;;;;2.17;59.15;99862.50;5014556;28;20032;-85
2023/11/26 08:29:42;;;;;;;0.15;0.15;;;;;;;2.30;58.29;99874.03;5014749;28;20096;-84
2023/11/26 08:32:11;;;;;;;0.20;0.20;;;;;;;2.21;57.83;99886.22;4999750;28;20088;-85
2023/11/26 08:34:41;;;;;;;0.10;0.10;;;;;;;2.32;56.64;99880.81;5030976;28;20116;-84
2023/11/26 08:37:08;;;;;;;0.20;0.20;;;;;;;2.41;57.50;99899.28;5014589;28;20033;-84
2023/11/26 08:39:34;;;;;;;0.10;0.10;;;;;;;2.46;57.00;99905.09;4998538;28;20125;-84
2023/11/26 08:42:07;;;;;;;0.10;0.10;;;;;;;2.45;57.16;99895.75;4998108;28;20100;-84
2023/11/26 08:44:32;;;;;;;0.20;0.20;;;;;;;2.56;56.75;99903.13;5030288;28;20082;-84
2023/11/26 08:46:59;;;;;;;0.10;0.10;;;;;;;2.70;56.62;99910.41;5030236;28;20025;-85
2023/11/26 08:49:26;;;;;;;0.10;0.10;;;;;;;2.73;56.61;99930.75;5014500;28;20030;-84
2023/11/26 08:51:52;;;;;;;0.20;0.20;;;;;;;2.82;55.62;99916.00;5013549;28;20029;-85
2023/11/26 08:54:20;;;;;;;0.10;0.10;;;;;;;2.95;54.40;99941.19;5030485;28;20032;-85
2023/11/26 08:56:45;;;;;;;0.20;0.20;;;;;;;2.94;55.16;99916.53;4998051;28;20068;-84
2023/11/26 08:59:11;;;;;;;0.20;0.20;;;;;;;2.95;54.92;99920.75;5013649;28;20021;-84
2023/11/26 09:01:37;;;;;;;0.20;0.20;;;;;;;3.09;54.18;99931.41;5030125;28;20381;-84
2023/11/26 09:04:03;;;;;;;0.10;0.10;;;;;;;3.20;54.73;99947.28;5030564;28;21196;-84
2023/11/26 09:06:29;;;;;;;0.20;0.20;;;;;;;3.04;54.39;99910.25;5030083;28;20458;-83
2023/11/26 09:08:55;;;;;;;0.20;0.20;;;;;;;3.12;54.12;99903.22;4997339;28;20022;-84
2023/11/26 09:11:20;;;;;;;0.20;0.20;;;;;;;3.15;53.56;99921.84;4997094;28;20037;-87
2023/11/26 09:13:46;;;;;;;0.20;0.20;;;;;;;3.20;53.83;99931.94;5013211;28;20030;-87
2023/11/26 09:16:11;;;;;;;0.20;0.20;;;;;;;3.21;53.75;99930.22;4997343;28;20033;-86
2023/11/26 09:18:37;;;;;;;0.20;0.20;;;;;;;3.30;53.49;99927.38;5029873;28;20052;-86
2023/11/26 09:21:06;;;;;;;0.20;0.20;;;;;;;3.50;54.29;99925.06;5013734;28;20033;-85
2023/11/26 09:23:32;;;;;;;0.20;0.20;;;;;;;3.35;52.62;99934.03;5013578;28;20032;-87
2023/11/26 09:25:58;;;;;;;0.20;0.20;;;;;;;3.60;52.68;99948.63;4997451;28;20521;-86
2023/11/26 09:28:24;;;;;;;0.17;0.17;;;;;;;3.53;52.92;99942.84;5013191;28;20179;-85
2023/11/26 09:30:50;;;;;;;0.20;0.20;;;;;;;3.63;54.60;99946.78;5013497;28;20063;-86
2023/11/26 09:33:15;;;;;;;0.20;0.20;;;;;;;3.68;52.96;99950.06;5013367;28;20037;-86
2023/11/26 09:35:41;;;;;;;0.10;0.10;;;;;;;3.49;52.20;99948.13;4997012;28;20034;-86
2023/11/26 09:38:07;;;;;;;0.10;0.10;;;;;;;3.56;53.70;99947.88;5013294;28;20029;-85
2023/11/26 09:40:33;;;;;;;0.10;0.10;;;;;;;3.63;52.64;99928.88;5013267;28;20414;-85
2023/11/26 09:42:59;;;;;;;0.10;0.10;;;;;;;3.75;52.20;99945.59;4996501;28;20095;-86
2023/11/26 09:45:24;;;;;;;0.13;0.13;;;;;;;3.60;51.35;99948.63;5013129;28;20995;-87
2023/11/26 09:47:50;;;;;;;0.20;0.20;;;;;;;3.69;51.49;99977.31;5013116;28;20030;-87
2023/11/26 09:50:15;;;;;;;0.20;0.20;;;;;;;3.64;52.45;99953.59;5012971;28;20175;-86
2023/11/26 09:52:41;;;;;;;0.10;0.10;;;;;;;3.81;52.07;99980.38;5012793;28;20053;-86
2023/11/26 09:55:10;;;;;;;0.20;0.20;;;;;;;3.89;52.88;99963.06;5012990;28;20030;-86
2023/11/26 09:57:40;;;;;;;0.20;0.20;;;;;;;3.87;52.02;99975.91;5012688;28;20021;-85
2023/11/26 10:00:09;;;;;;;0.20;0.20;;;;;;;3.73;52.50;99967.81;5013338;28;20033;-86
2023/11/26 10:02:34;;;;;;;0.20;0.20;;;;;;;3.82;52.20;99967.50;5029341;28;20025;-85
2023/11/26 10:05:00;;;;;;;0.20;0.20;;;;;;;3.79;51.64;99980.41;5012564;28;20109;-86
2023/11/26 10:07:40;;;;;;;0.10;0.10;;;;;;;3.86;52.96;99975.97;5029612;28;20091;-86
2023/11/26 10:10:10;;;;;;;0.10;0.10;;;;;;;3.87;51.00;99995.53;5013983;28;20030;-86
2023/11/26 10:12:50;;;;;;;0.20;0.20;;;;;;;3.96;52.39;100003.75;4997310;28;20033;-86
2023/11/26 10:15:15;;;;;;;0.20;0.20;;;;;;;4.08;52.20;100002.53;5013102;28;20034;-86
2023/11/26 10:17:41;;;;;;;0.20;0.20;;;;;;;3.98;50.80;100003.72;5012509;28;20025;-86
2023/11/26 10:20:19;;;;;;;0.10;0.10;;;;;;;4.12;51.45;100010.94;5029449;28;20040;-86
2023/11/26 10:22:45;;;;;;;0.20;0.20;;;;;;;4.17;51.98;100015.03;4996474;28;20032;-86
2023/11/26 10:25:11;;;;;;;0.10;0.10;;;;;;;3.97;50.24;100007.16;5012636;28;20032;-86
2023/11/26 10:27:37;;;;;;;0.10;0.10;;;;;;;4.08;50.31;100030.69;5012724;28;20025;-87
2023/11/26 10:30:03;;;;;;;0.20;0.20;;;;;;;4.21;50.16;100037.06;5012747;28;20029;-86
2023/11/26 10:32:28;;;;;;;0.20;0.20;;;;;;;4.11;50.00;100017.78;5012716;28;20025;-86
2023/11/26 10:34:54;;;;;;;0.20;0.20;;;;;;;4.29;50.08;100047.06;5029898;28;20483;-87
2023/11/26 10:37:20;;;;;;;0.10;0.10;;;;;;;4.20;50.03;100060.19;5012770;28;20033;-86
2023/11/26 10:39:50;;;;;;;0.20;0.20;;;;;;;4.03;49.55;100019.75;5011994;28;20116;-86
2023/11/26 10:42:16;;;;;;;0.10;0.10;;;;;;;4.39;49.91;100060.44;4996752;28;20029;-87
2023/11/26 10:44:41;;;;;;;0.20;0.20;;;;;;;4.35;49.36;100069.09;5012389;28;20029;-85
2023/11/26 10:47:07;;;;;;;0.20;0.20;;;;;;;4.42;49.57;100068.00;5012305;28;20029;-86
2023/11/26 10:49:35;;;;;;;0.20;0.20;;;;;;;4.41;49.90;100072.28;5012572;28;20095;-86
2023/11/26 10:52:13;;;;;;;0.10;0.10;;;;;;;4.45;49.40;100071.31;4996372;28;20114;-86
2023/11/26 10:54:56;;;;;;;0.10;0.10;;;;;;;4.25;49.61;100038.66;5029965;28;20025;-84
2023/11/26 10:57:28;;;;;;;0.10;0.10;;;;;;;4.46;51.32;100077.28;5028741;28;20083;-85
2023/11/26 10:59:54;;;;;;;0.20;0.20;;;;;;;4.52;49.86;100093.28;5012180;28;20083;-86
2023/11/26 11:02:20;;;;;;;0.20;0.20;;;;;;;4.32;49.92;100083.66;5012542;28;20268;-86
2023/11/26 11:04:48;;;;;;;0.20;0.20;;;;;;;4.42;51.00;100097.00;4995594;28;20052;-85
2023/11/26 11:07:14;;;;;;;0.20;0.20;;;;;;;4.46;49.06;100100.31;5013051;28;20084;-86
2023/11/26 11:10:17;;;;;;;0.10;0.10;;;;;;;4.48;49.66;100095.97;5011991;28;20038;-85
2023/11/26 11:13:12;;;;;;;0.10;0.10;;;;;;;4.53;48.22;100130.00;5028766;28;20517;-85
2023/11/26 11:15:41;;;;;;;0.10;0.10;;;;;;;4.32;49.21;100100.75;5011468;28;20037;-85
2023/11/26 11:18:28;;;;;;;0.20;0.20;;;;;;;4.48;49.82;100142.09;4999506;28;20021;-86
2023/11/26 11:20:58;;;;;;;0.20;0.20;;;;;;;4.58;50.96;100140.91;5033749;28;20060;-84
2023/11/26 11:23:47;;;;;;;0.10;0.10;;;;;;;4.64;50.00;100147.56;5031998;28;20511;-85
2023/11/26 11:26:14;;;;;;;0.20;0.20;;;;;;;4.71;48.65;100165.25;5016260;28;20036;-86
2023/11/26 11:28:40;;;;;;;0.10;0.10;;;;;;;4.72;48.27;100171.19;5032220;28;20033;-86
2023/11/26 11:31:07;;;;;;;0.20;0.20;;;;;;;4.59;47.98;100165.63;5033598;28;20412;-86
2023/11/26 11:33:32;;;;;;;0.10;0.10;;;;;;;4.53;48.86;100160.72;4999078;28;20130;-85
2023/11/26 11:35:58;;;;;;;0.20;0.20;;;;;;;4.81;48.50;100176.88;5031803;28;20654;-85
2023/11/26 11:38:26;;;;;;;0.20;0.20;;;;;;;4.63;47.41;100182.63;5031392;28;20045;-85
2023/11/26 11:41:13;;;;;;;0.20;0.20;;;;;;;4.69;48.24;100186.69;5015792;28;20057;-86
2023/11/26 11:43:41;;;;;;;0.15;0.15;;;;;;;4.78;48.59;100179.53;5016184;28;20113;-85